sensor_id;sensor_type;location;lat;lon;timestamp;P1;durP1;ratioP1;P2;durP2;ratioP2
23242;SDS011;11790;49.578;11.214;2023-05-07T00:04:39;6.20;;;3.80;;
23242;SDS011;11790;49.578;11.214;2023-05-07T00:09:40;13.50;;;4.72;;
23242;SDS011;11790;49.578;11.214;2023-05-07T00:14:40;4.77;;;3.70;;
23242;SDS011;11790;49.578;11.214;2023-05-07T00:19:40;7.35;;;3.50;;
23242;SDS011;11790;49.578;11.214;2023-05-07T00:24:40;4.57;;;3.22;;
23242;SDS011;11790;49.578;11.214;2023-05-07T00:29:40;6.00;;;3.17;;
23242;SDS011;11790;49.578;11.214;2023-05-07T00:34:41;3.92;;;2.63;;
23242;SDS011;11790;49.578;11.214;2023-05-07T00:39:41;6.80;;;3.35;;
23242;SDS011;11790;49.578;11.214;2023-05-07T00:44:41;4.10;;;2.88;;
23242;SDS011;11790;49.578;11.214;2023-05-07T00:49:42;6.90;;;3.40;;
23242;SDS011;11790;49.578;11.214;2023-05-07T00:54:42;4.00;;;3.00;;
23242;SDS011;11790;49.578;11.214;2023-05-07T00:59:42;4.93;;;3.13;;
23242;SDS011;11790;49.578;11.214;2023-05-07T01:04:43;6.18;;;3.47;;
23242;SDS011;11790;49.578;11.214;2023-05-07T01:09:43;5.32;;;3.72;;
23242;SDS011;11790;49.578;11.214;2023-05-07T01:14:43;5.35;;;3.88;;
23242;SDS011;11790;49.578;11.214;2023-05-07T01:19:43;4.82;;;3.80;;
23242;SDS011;11790;49.578;11.214;2023-05-07T01:24:44;5.60;;;4.00;;
23242;SDS011;11790;49.578;11.214;2023-05-07T01:29:44;4.97;;;4.20;;
23242;SDS011;11790;49.578;11.214;2023-05-07T01:34:44;6.78;;;4.00;;
23242;SDS011;11790;49.578;11.214;2023-05-07T01:39:46;5.45;;;4.43;;
23242;SDS011;11790;49.578;11.214;2023-05-07T01:44:46;7.07;;;4.60;;
23242;SDS011;11790;49.578;11.214;2023-05-07T01:49:47;7.05;;;4.43;;
23242;SDS011;11790;49.578;11.214;2023-05-07T01:54:48;5.72;;;4.78;;
23242;SDS011;11790;49.578;11.214;2023-05-07T01:59:48;6.88;;;4.22;;
23242;SDS011;11790;49.578;11.214;2023-05-07T02:04:48;6.50;;;4.50;;
23242;SDS011;11790;49.578;11.214;2023-05-07T02:09:48;9.80;;;4.90;;
23242;SDS011;11790;49.578;11.214;2023-05-07T02:14:49;8.73;;;4.82;;
23242;SDS011;11790;49.578;11.214;2023-05-07T02:19:49;6.97;;;4.57;;
23242;SDS011;11790;49.578;11.214;2023-05-07T02:24:49;5.23;;;4.07;;
23242;SDS011;11790;49.578;11.214;2023-05-07T02:29:50;7.38;;;4.75;;
23242;SDS011;11790;49.578;11.214;2023-05-07T02:34:50;6.43;;;4.95;;
23242;SDS011;11790;49.578;11.214;2023-05-07T02:39:51;8.00;;;5.22;;
23242;SDS011;11790;49.578;11.214;2023-05-07T02:44:51;8.68;;;5.50;;
23242;SDS011;11790;49.578;11.214;2023-05-07T02:49:51;8.73;;;5.57;;
23242;SDS011;11790;49.578;11.214;2023-05-07T02:54:51;8.35;;;6.20;;
23242;SDS011;11790;49.578;11.214;2023-05-07T02:59:51;12.07;;;6.45;;
23242;SDS011;11790;49.578;11.214;2023-05-07T03:04:51;9.80;;;6.07;;
23242;SDS011;11790;49.578;11.214;2023-05-07T03:09:52;8.05;;;6.18;;
23242;SDS011;11790;49.578;11.214;2023-05-07T03:14:53;7.80;;;6.07;;
23242;SDS011;11790;49.578;11.214;2023-05-07T03:19:53;8.73;;;6.10;;
23242;SDS011;11790;49.578;11.214;2023-05-07T03:24:53;8.75;;;6.03;;
23242;SDS011;11790;49.578;11.214;2023-05-07T03:29:54;9.77;;;6.40;;
23242;SDS011;11790;49.578;11.214;2023-05-07T03:34:54;9.38;;;6.45;;
23242;SDS011;11790;49.578;11.214;2023-05-07T03:39:55;9.30;;;6.78;;
23242;SDS011;11790;49.578;11.214;2023-05-07T03:44:55;9.40;;;7.00;;
23242;SDS011;11790;49.578;11.214;2023-05-07T03:49:56;10.40;;;7.38;;
23242;SDS011;11790;49.578;11.214;2023-05-07T03:54:56;9.40;;;6.90;;
23242;SDS011;11790;49.578;11.214;2023-05-07T03:59:56;10.25;;;7.03;;
23242;SDS011;11790;49.578;11.214;2023-05-07T04:04:56;11.23;;;7.30;;
23242;SDS011;11790;49.578;11.214;2023-05-07T04:09:56;13.40;;;7.87;;
23242;SDS011;11790;49.578;11.214;2023-05-07T04:14:57;11.55;;;7.65;;
23242;SDS011;11790;49.578;11.214;2023-05-07T04:19:57;11.18;;;7.22;;
23242;SDS011;11790;49.578;11.214;2023-05-07T04:24:57;13.07;;;7.72;;
23242;SDS011;11790;49.578;11.214;2023-05-07T04:29:57;14.07;;;8.00;;
23242;SDS011;11790;49.578;11.214;2023-05-07T04:34:57;12.85;;;8.30;;
23242;SDS011;11790;49.578;11.214;2023-05-07T04:39:58;12.85;;;9.07;;
23242;SDS011;11790;49.578;11.214;2023-05-07T04:44:58;11.50;;;9.00;;
23242;SDS011;11790;49.578;11.214;2023-05-07T04:49:58;12.47;;;8.80;;
23242;SDS011;11790;49.578;11.214;2023-05-07T04:54:59;11.60;;;8.52;;
23242;SDS011;11790;49.578;11.214;2023-05-07T04:59:59;12.05;;;8.43;;
23242;SDS011;11790;49.578;11.214;2023-05-07T05:04:59;11.30;;;8.32;;
23242;SDS011;11790;49.578;11.214;2023-05-07T05:10:01;14.25;;;9.25;;
23242;SDS011;11790;49.578;11.214;2023-05-07T05:15:02;11.93;;;9.00;;
23242;SDS011;11790;49.578;11.214;2023-05-07T05:20:02;11.20;;;8.53;;
23242;SDS011;11790;49.578;11.214;2023-05-07T05:25:03;11.13;;;7.80;;
23242;SDS011;11790;49.578;11.214;2023-05-07T05:30:04;11.50;;;9.02;;
23242;SDS011;11790;49.578;11.214;2023-05-07T05:35:05;11.30;;;8.25;;
23242;SDS011;11790;49.578;11.214;2023-05-07T05:40:06;11.27;;;8.63;;
23242;SDS011;11790;49.578;11.214;2023-05-07T05:45:06;12.48;;;7.93;;
23242;SDS011;11790;49.578;11.214;2023-05-07T05:50:07;11.63;;;8.20;;
23242;SDS011;11790;49.578;11.214;2023-05-07T05:55:07;10.35;;;7.55;;
23242;SDS011;11790;49.578;11.214;2023-05-07T06:00:08;9.52;;;7.30;;
23242;SDS011;11790;49.578;11.214;2023-05-07T06:05:08;9.20;;;7.22;;
23242;SDS011;11790;49.578;11.214;2023-05-07T06:10:09;9.27;;;6.80;;
23242;SDS011;11790;49.578;11.214;2023-05-07T06:15:09;8.27;;;6.43;;
23242;SDS011;11790;49.578;11.214;2023-05-07T06:20:09;8.90;;;6.47;;
23242;SDS011;11790;49.578;11.214;2023-05-07T06:25:10;8.13;;;5.93;;
23242;SDS011;11790;49.578;11.214;2023-05-07T06:30:10;7.30;;;5.65;;
23242;SDS011;11790;49.578;11.214;2023-05-07T06:35:10;8.00;;;6.00;;
23242;SDS011;11790;49.578;11.214;2023-05-07T06:40:11;8.05;;;5.93;;
23242;SDS011;11790;49.578;11.214;2023-05-07T06:45:11;7.68;;;6.07;;
23242;SDS011;11790;49.578;11.214;2023-05-07T06:50:11;9.07;;;6.78;;
23242;SDS011;11790;49.578;11.214;2023-05-07T06:55:11;8.15;;;6.00;;
23242;SDS011;11790;49.578;11.214;2023-05-07T07:00:12;7.70;;;5.93;;
23242;SDS011;11790;49.578;11.214;2023-05-07T07:05:12;8.35;;;5.85;;
23242;SDS011;11790;49.578;11.214;2023-05-07T07:10:12;8.63;;;5.47;;
23242;SDS011;11790;49.578;11.214;2023-05-07T07:15:15;7.03;;;5.60;;
23242;SDS011;11790;49.578;11.214;2023-05-07T07:20:15;6.55;;;5.40;;
23242;SDS011;11790;49.578;11.214;2023-05-07T07:25:16;8.43;;;5.57;;
23242;SDS011;11790;49.578;11.214;2023-05-07T07:30:16;8.45;;;5.30;;
23242;SDS011;11790;49.578;11.214;2023-05-07T07:35:16;8.93;;;5.05;;
23242;SDS011;11790;49.578;11.214;2023-05-07T07:40:16;6.22;;;5.07;;
23242;SDS011;11790;49.578;11.214;2023-05-07T07:45:17;7.13;;;5.07;;
23242;SDS011;11790;49.578;11.214;2023-05-07T07:50:17;4.85;;;4.35;;
23242;SDS011;11790;49.578;11.214;2023-05-07T07:55:19;5.57;;;4.95;;
23242;SDS011;11790;49.578;11.214;2023-05-07T08:00:22;5.05;;;4.47;;
23242;SDS011;11790;49.578;11.214;2023-05-07T08:05:22;4.45;;;4.05;;
23242;SDS011;11790;49.578;11.214;2023-05-07T08:10:22;5.68;;;4.65;;
23242;SDS011;11790;49.578;11.214;2023-05-07T08:15:23;4.93;;;4.28;;
23242;SDS011;11790;49.578;11.214;2023-05-07T08:20:23;5.18;;;4.32;;
23242;SDS011;11790;49.578;11.214;2023-05-07T08:25:23;6.33;;;4.37;;
23242;SDS011;11790;49.578;11.214;2023-05-07T08:30:23;5.68;;;4.85;;
23242;SDS011;11790;49.578;11.214;2023-05-07T08:35:24;5.60;;;4.43;;
23242;SDS011;11790;49.578;11.214;2023-05-07T08:40:26;5.55;;;4.43;;
23242;SDS011;11790;49.578;11.214;2023-05-07T08:45:26;6.20;;;4.65;;
23242;SDS011;11790;49.578;11.214;2023-05-07T08:50:28;5.78;;;4.57;;
23242;SDS011;11790;49.578;11.214;2023-05-07T08:55:28;4.80;;;4.18;;
23242;SDS011;11790;49.578;11.214;2023-05-07T09:00:28;5.33;;;4.57;;
23242;SDS011;11790;49.578;11.214;2023-05-07T09:05:28;4.68;;;4.07;;
23242;SDS011;11790;49.578;11.214;2023-05-07T09:10:29;5.07;;;3.93;;
23242;SDS011;11790;49.578;11.214;2023-05-07T09:15:29;4.13;;;3.60;;
23242;SDS011;11790;49.578;11.214;2023-05-07T09:20:30;4.87;;;3.90;;
23242;SDS011;11790;49.578;11.214;2023-05-07T09:25:31;5.38;;;3.90;;
23242;SDS011;11790;49.578;11.214;2023-05-07T09:30:32;4.28;;;3.70;;
23242;SDS011;11790;49.578;11.214;2023-05-07T09:35:32;4.15;;;3.65;;
23242;SDS011;11790;49.578;11.214;2023-05-07T09:40:32;5.18;;;4.45;;
23242;SDS011;11790;49.578;11.214;2023-05-07T09:45:33;4.38;;;3.55;;
23242;SDS011;11790;49.578;11.214;2023-05-07T09:50:35;3.80;;;3.35;;
23242;SDS011;11790;49.578;11.214;2023-05-07T09:55:36;6.53;;;4.53;;
23242;SDS011;11790;49.578;11.214;2023-05-07T10:00:37;4.82;;;3.88;;
23242;SDS011;11790;49.578;11.214;2023-05-07T10:05:37;5.43;;;3.65;;
23242;SDS011;11790;49.578;11.214;2023-05-07T10:10:38;7.47;;;3.63;;
23242;SDS011;11790;49.578;11.214;2023-05-07T10:15:38;5.50;;;3.50;;
23242;SDS011;11790;49.578;11.214;2023-05-07T10:20:39;4.22;;;3.50;;
23242;SDS011;11790;49.578;11.214;2023-05-07T10:25:39;6.37;;;3.50;;
23242;SDS011;11790;49.578;11.214;2023-05-07T10:30:53;3.13;;;2.83;;
23242;SDS011;11790;49.578;11.214;2023-05-07T10:36:01;3.53;;;2.90;;
23242;SDS011;11790;49.578;11.214;2023-05-07T10:41:04;4.78;;;3.90;;
23242;SDS011;11790;49.578;11.214;2023-05-07T10:46:15;4.85;;;3.17;;
23242;SDS011;11790;49.578;11.214;2023-05-07T10:51:18;3.83;;;2.92;;
23242;SDS011;11790;49.578;11.214;2023-05-07T11:06:39;3.78;;;2.80;;
23242;SDS011;11790;49.578;11.214;2023-05-07T11:11:45;5.17;;;2.60;;
23242;SDS011;11790;49.578;11.214;2023-05-07T11:16:47;4.10;;;2.67;;
23242;SDS011;11790;49.578;11.214;2023-05-07T11:21:47;3.10;;;2.80;;
23242;SDS011;11790;49.578;11.214;2023-05-07T11:26:48;3.65;;;2.80;;
23242;SDS011;11790;49.578;11.214;2023-05-07T11:31:49;10.07;;;2.85;;
23242;SDS011;11790;49.578;11.214;2023-05-07T11:36:50;2.63;;;2.10;;
23242;SDS011;11790;49.578;11.214;2023-05-07T11:41:51;3.10;;;2.42;;
23242;SDS011;11790;49.578;11.214;2023-05-07T11:46:51;2.42;;;2.00;;
23242;SDS011;11790;49.578;11.214;2023-05-07T11:51:51;1.92;;;1.70;;
23242;SDS011;11790;49.578;11.214;2023-05-07T11:56:51;2.55;;;1.65;;
23242;SDS011;11790;49.578;11.214;2023-05-07T12:01:52;2.00;;;1.70;;
23242;SDS011;11790;49.578;11.214;2023-05-07T12:06:55;2.40;;;1.80;;
23242;SDS011;11790;49.578;11.214;2023-05-07T12:11:55;2.00;;;1.73;;
23242;SDS011;11790;49.578;11.214;2023-05-07T12:16:56;2.25;;;1.75;;
23242;SDS011;11790;49.578;11.214;2023-05-07T12:21:56;4.63;;;2.30;;
23242;SDS011;11790;49.578;11.214;2023-05-07T12:26:57;2.58;;;2.38;;
23242;SDS011;11790;49.578;11.214;2023-05-07T12:31:57;3.83;;;2.22;;
23242;SDS011;11790;49.578;11.214;2023-05-07T12:36:57;3.72;;;2.00;;
23242;SDS011;11790;49.578;11.214;2023-05-07T12:42:01;2.93;;;2.00;;
23242;SDS011;11790;49.578;11.214;2023-05-07T12:47:02;2.20;;;1.90;;
23242;SDS011;11790;49.578;11.214;2023-05-07T12:52:02;2.60;;;2.00;;
23242;SDS011;11790;49.578;11.214;2023-05-07T12:57:03;2.10;;;1.90;;
23242;SDS011;11790;49.578;11.214;2023-05-07T13:02:04;3.78;;;2.15;;
23242;SDS011;11790;49.578;11.214;2023-05-07T13:07:04;3.85;;;2.20;;
23242;SDS011;11790;49.578;11.214;2023-05-07T13:12:05;2.40;;;2.08;;
23242;SDS011;11790;49.578;11.214;2023-05-07T13:17:06;2.78;;;2.05;;
23242;SDS011;11790;49.578;11.214;2023-05-07T13:22:06;2.38;;;2.10;;
23242;SDS011;11790;49.578;11.214;2023-05-07T13:27:06;2.65;;;2.13;;
23242;SDS011;11790;49.578;11.214;2023-05-07T13:32:06;4.13;;;2.95;;
23242;SDS011;11790;49.578;11.214;2023-05-07T13:37:06;2.50;;;2.00;;
23242;SDS011;11790;49.578;11.214;2023-05-07T13:42:07;2.90;;;1.77;;
23242;SDS011;11790;49.578;11.214;2023-05-07T13:47:08;1.98;;;1.77;;
23242;SDS011;11790;49.578;11.214;2023-05-07T13:52:08;2.30;;;2.10;;
23242;SDS011;11790;49.578;11.214;2023-05-07T13:57:08;2.13;;;1.92;;
23242;SDS011;11790;49.578;11.214;2023-05-07T14:02:08;2.30;;;2.00;;
23242;SDS011;11790;49.578;11.214;2023-05-07T14:07:09;2.67;;;1.85;;
23242;SDS011;11790;49.578;11.214;2023-05-07T14:12:09;2.60;;;1.90;;
23242;SDS011;11790;49.578;11.214;2023-05-07T14:17:09;2.80;;;2.00;;
23242;SDS011;11790;49.578;11.214;2023-05-07T14:22:09;3.13;;;1.92;;
23242;SDS011;11790;49.578;11.214;2023-05-07T14:27:10;1.85;;;1.60;;
23242;SDS011;11790;49.578;11.214;2023-05-07T14:32:10;2.33;;;1.90;;
23242;SDS011;11790;49.578;11.214;2023-05-07T14:37:10;2.17;;;1.98;;
23242;SDS011;11790;49.578;11.214;2023-05-07T14:42:10;4.32;;;1.95;;
23242;SDS011;11790;49.578;11.214;2023-05-07T14:47:11;1.80;;;1.70;;
23242;SDS011;11790;49.578;11.214;2023-05-07T14:52:11;2.22;;;1.70;;
23242;SDS011;11790;49.578;11.214;2023-05-07T14:57:13;3.07;;;1.87;;
23242;SDS011;11790;49.578;11.214;2023-05-07T15:02:14;1.98;;;1.67;;
23242;SDS011;11790;49.578;11.214;2023-05-07T15:07:15;3.65;;;1.60;;
23242;SDS011;11790;49.578;11.214;2023-05-07T15:12:15;3.80;;;2.00;;
23242;SDS011;11790;49.578;11.214;2023-05-07T15:17:15;2.07;;;1.70;;
23242;SDS011;11790;49.578;11.214;2023-05-07T15:22:16;2.00;;;1.75;;
23242;SDS011;11790;49.578;11.214;2023-05-07T15:27:16;2.25;;;1.60;;
23242;SDS011;11790;49.578;11.214;2023-05-07T15:32:16;4.20;;;1.92;;
23242;SDS011;11790;49.578;11.214;2023-05-07T15:37:17;1.55;;;1.40;;
23242;SDS011;11790;49.578;11.214;2023-05-07T15:42:17;2.00;;;1.50;;
23242;SDS011;11790;49.578;11.214;2023-05-07T15:47:17;2.58;;;1.67;;
23242;SDS011;11790;49.578;11.214;2023-05-07T15:52:17;2.83;;;1.80;;
23242;SDS011;11790;49.578;11.214;2023-05-07T15:57:18;2.70;;;2.20;;
23242;SDS011;11790;49.578;11.214;2023-05-07T16:02:18;3.33;;;2.25;;
23242;SDS011;11790;49.578;11.214;2023-05-07T16:07:18;4.68;;;2.47;;
23242;SDS011;11790;49.578;11.214;2023-05-07T16:12:18;2.90;;;2.45;;
23242;SDS011;11790;49.578;11.214;2023-05-07T16:17:19;3.15;;;2.85;;
23242;SDS011;11790;49.578;11.214;2023-05-07T16:22:19;4.07;;;3.25;;
23242;SDS011;11790;49.578;11.214;2023-05-07T16:27:19;3.00;;;2.67;;
23242;SDS011;11790;49.578;11.214;2023-05-07T16:32:19;3.55;;;2.97;;
23242;SDS011;11790;49.578;11.214;2023-05-07T16:37:19;4.43;;;3.67;;
23242;SDS011;11790;49.578;11.214;2023-05-07T16:42:20;7.15;;;3.97;;
23242;SDS011;11790;49.578;11.214;2023-05-07T16:47:20;4.65;;;3.65;;
23242;SDS011;11790;49.578;11.214;2023-05-07T16:52:20;5.22;;;3.67;;
23242;SDS011;11790;49.578;11.214;2023-05-07T16:57:20;5.97;;;4.15;;
23242;SDS011;11790;49.578;11.214;2023-05-07T17:02:21;5.47;;;4.45;;
23242;SDS011;11790;49.578;11.214;2023-05-07T17:07:21;4.30;;;3.50;;
23242;SDS011;11790;49.578;11.214;2023-05-07T17:12:21;3.92;;;3.38;;
23242;SDS011;11790;49.578;11.214;2023-05-07T17:17:21;4.00;;;3.58;;
23242;SDS011;11790;49.578;11.214;2023-05-07T17:22:21;3.90;;;3.40;;
23242;SDS011;11790;49.578;11.214;2023-05-07T17:27:22;3.75;;;3.03;;
23242;SDS011;11790;49.578;11.214;2023-05-07T17:32:22;4.63;;;3.75;;
23242;SDS011;11790;49.578;11.214;2023-05-07T17:37:22;4.80;;;3.35;;
23242;SDS011;11790;49.578;11.214;2023-05-07T17:42:22;4.20;;;3.30;;
23242;SDS011;11790;49.578;11.214;2023-05-07T17:47:22;3.70;;;3.10;;
23242;SDS011;11790;49.578;11.214;2023-05-07T17:52:23;5.43;;;3.22;;
23242;SDS011;11790;49.578;11.214;2023-05-07T17:57:23;5.43;;;3.60;;
23242;SDS011;11790;49.578;11.214;2023-05-07T18:02:23;4.68;;;3.35;;
23242;SDS011;11790;49.578;11.214;2023-05-07T18:07:24;4.30;;;3.38;;
23242;SDS011;11790;49.578;11.214;2023-05-07T18:12:24;4.10;;;3.17;;
23242;SDS011;11790;49.578;11.214;2023-05-07T18:17:25;3.50;;;2.90;;
23242;SDS011;11790;49.578;11.214;2023-05-07T18:22:26;3.55;;;2.60;;
23242;SDS011;11790;49.578;11.214;2023-05-07T18:27:26;7.05;;;3.15;;
23242;SDS011;11790;49.578;11.214;2023-05-07T18:32:27;3.88;;;2.90;;
23242;SDS011;11790;49.578;11.214;2023-05-07T18:37:27;4.50;;;3.05;;
23242;SDS011;11790;49.578;11.214;2023-05-07T18:42:27;3.75;;;2.75;;
23242;SDS011;11790;49.578;11.214;2023-05-07T18:47:27;3.22;;;2.65;;
23242;SDS011;11790;49.578;11.214;2023-05-07T18:52:28;19.00;;;3.67;;
23242;SDS011;11790;49.578;11.214;2023-05-07T18:57:29;5.88;;;2.97;;
23242;SDS011;11790;49.578;11.214;2023-05-07T19:02:29;3.95;;;2.78;;
23242;SDS011;11790;49.578;11.214;2023-05-07T19:07:29;3.53;;;2.65;;
23242;SDS011;11790;49.578;11.214;2023-05-07T19:12:30;3.65;;;2.80;;
23242;SDS011;11790;49.578;11.214;2023-05-07T19:17:30;5.90;;;2.88;;
23242;SDS011;11790;49.578;11.214;2023-05-07T19:22:30;5.90;;;2.80;;
23242;SDS011;11790;49.578;11.214;2023-05-07T19:27:30;2.75;;;2.28;;
23242;SDS011;11790;49.578;11.214;2023-05-07T19:32:31;4.17;;;2.87;;
23242;SDS011;11790;49.578;11.214;2023-05-07T19:37:31;3.97;;;3.00;;
23242;SDS011;11790;49.578;11.214;2023-05-07T19:42:31;5.20;;;2.90;;
23242;SDS011;11790;49.578;11.214;2023-05-07T19:47:31;3.85;;;2.85;;
23242;SDS011;11790;49.578;11.214;2023-05-07T19:52:32;3.67;;;2.72;;
23242;SDS011;11790;49.578;11.214;2023-05-07T19:57:32;4.60;;;3.05;;
23242;SDS011;11790;49.578;11.214;2023-05-07T20:02:32;4.07;;;3.33;;
23242;SDS011;11790;49.578;11.214;2023-05-07T20:07:32;5.30;;;3.60;;
23242;SDS011;11790;49.578;11.214;2023-05-07T20:12:32;5.28;;;3.55;;
23242;SDS011;11790;49.578;11.214;2023-05-07T20:17:33;4.18;;;3.63;;
23242;SDS011;11790;49.578;11.214;2023-05-07T20:22:33;4.67;;;3.73;;
23242;SDS011;11790;49.578;11.214;2023-05-07T20:27:33;7.50;;;3.97;;
23242;SDS011;11790;49.578;11.214;2023-05-07T20:32:34;5.05;;;4.05;;
23242;SDS011;11790;49.578;11.214;2023-05-07T20:37:35;5.88;;;3.90;;
23242;SDS011;11790;49.578;11.214;2023-05-07T20:42:35;4.53;;;3.50;;
23242;SDS011;11790;49.578;11.214;2023-05-07T20:47:35;7.05;;;4.28;;
23242;SDS011;11790;49.578;11.214;2023-05-07T20:52:36;6.28;;;3.50;;
23242;SDS011;11790;49.578;11.214;2023-05-07T20:57:36;5.25;;;3.90;;
23242;SDS011;11790;49.578;11.214;2023-05-07T21:02:36;5.30;;;3.97;;
23242;SDS011;11790;49.578;11.214;2023-05-07T21:07:36;5.65;;;4.20;;
23242;SDS011;11790;49.578;11.214;2023-05-07T21:12:36;5.32;;;4.10;;
23242;SDS011;11790;49.578;11.214;2023-05-07T21:17:38;7.57;;;4.35;;
23242;SDS011;11790;49.578;11.214;2023-05-07T21:22:38;7.45;;;4.15;;
23242;SDS011;11790;49.578;11.214;2023-05-07T21:27:38;5.22;;;4.25;;
23242;SDS011;11790;49.578;11.214;2023-05-07T21:32:39;5.75;;;4.28;;
23242;SDS011;11790;49.578;11.214;2023-05-07T21:37:39;9.63;;;4.00;;
23242;SDS011;11790;49.578;11.214;2023-05-07T21:42:39;6.38;;;4.40;;
23242;SDS011;11790;49.578;11.214;2023-05-07T21:47:39;5.63;;;4.30;;
23242;SDS011;11790;49.578;11.214;2023-05-07T21:52:40;5.22;;;4.20;;
23242;SDS011;11790;49.578;11.214;2023-05-07T21:57:40;5.85;;;4.15;;
23242;SDS011;11790;49.578;11.214;2023-05-07T22:02:42;4.68;;;3.90;;
23242;SDS011;11790;49.578;11.214;2023-05-07T22:07:42;5.95;;;4.55;;
23242;SDS011;11790;49.578;11.214;2023-05-07T22:12:42;5.63;;;4.50;;
23242;SDS011;11790;49.578;11.214;2023-05-07T22:17:42;6.57;;;4.43;;
23242;SDS011;11790;49.578;11.214;2023-05-07T22:22:50;7.00;;;4.07;;
23242;SDS011;11790;49.578;11.214;2023-05-07T22:27:50;6.13;;;4.63;;
23242;SDS011;11790;49.578;11.214;2023-05-07T22:32:51;7.28;;;4.70;;
23242;SDS011;11790;49.578;11.214;2023-05-07T22:37:51;6.93;;;4.15;;
23242;SDS011;11790;49.578;11.214;2023-05-07T22:42:51;6.40;;;4.72;;
23242;SDS011;11790;49.578;11.214;2023-05-07T22:47:51;6.28;;;4.20;;
23242;SDS011;11790;49.578;11.214;2023-05-07T22:52:51;7.00;;;5.28;;
23242;SDS011;11790;49.578;11.214;2023-05-07T22:57:51;5.88;;;4.35;;
23242;SDS011;11790;49.578;11.214;2023-05-07T23:02:52;6.15;;;4.72;;
23242;SDS011;11790;49.578;11.214;2023-05-07T23:07:52;6.28;;;4.78;;
23242;SDS011;11790;49.578;11.214;2023-05-07T23:12:53;6.18;;;4.85;;
23242;SDS011;11790;49.578;11.214;2023-05-07T23:17:53;6.68;;;4.75;;
23242;SDS011;11790;49.578;11.214;2023-05-07T23:22:53;6.07;;;4.60;;
23242;SDS011;11790;49.578;11.214;2023-05-07T23:27:54;6.40;;;4.97;;
23242;SDS011;11790;49.578;11.214;2023-05-07T23:32:54;6.47;;;4.80;;
23242;SDS011;11790;49.578;11.214;2023-05-07T23:37:54;5.57;;;4.80;;
23242;SDS011;11790;49.578;11.214;2023-05-07T23:42:54;8.35;;;5.15;;
23242;SDS011;11790;49.578;11.214;2023-05-07T23:47:54;8.95;;;5.15;;
23242;SDS011;11790;49.578;11.214;2023-05-07T23:52:55;6.60;;;4.82;;
23242;SDS011;11790;49.578;11.214;2023-05-07T23:57:55;6.85;;;5.22;;
